sensor_id;sensor_type;location;lat;lon;timestamp;P1;durP1;ratioP1;P2;durP2;ratioP2
19151;SDS011;9708;53.114;9.388;2023-07-20T00:01:14;2.00;;;1.23;;
19151;SDS011;9708;53.114;9.388;2023-07-20T00:03:41;1.33;;;1.23;;
19151;SDS011;9708;53.114;9.388;2023-07-20T00:06:07;1.33;;;1.20;;
19151;SDS011;9708;53.114;9.388;2023-07-20T00:08:34;1.90;;;1.17;;
19151;SDS011;9708;53.114;9.388;2023-07-20T00:11:02;0.95;;;0.95;;
19151;SDS011;9708;53.114;9.388;2023-07-20T00:13:29;2.07;;;1.17;;
19151;SDS011;9708;53.114;9.388;2023-07-20T00:15:56;0.82;;;0.82;;
19151;SDS011;9708;53.114;9.388;2023-07-20T00:18:23;1.00;;;0.93;;
19151;SDS011;9708;53.114;9.388;2023-07-20T00:20:50;1.55;;;1.20;;
19151;SDS011;9708;53.114;9.388;2023-07-20T00:23:17;2.08;;;1.20;;
19151;SDS011;9708;53.114;9.388;2023-07-20T00:25:47;1.00;;;1.00;;
19151;SDS011;9708;53.114;9.388;2023-07-20T00:28:15;1.55;;;1.42;;
19151;SDS011;9708;53.114;9.388;2023-07-20T00:30:42;2.53;;;1.20;;
19151;SDS011;9708;53.114;9.388;2023-07-20T00:33:10;1.25;;;1.15;;
19151;SDS011;9708;53.114;9.388;2023-07-20T00:35:37;1.88;;;1.13;;
19151;SDS011;9708;53.114;9.388;2023-07-20T00:38:04;1.20;;;1.10;;
19151;SDS011;9708;53.114;9.388;2023-07-20T00:40:35;1.10;;;1.00;;
19151;SDS011;9708;53.114;9.388;2023-07-20T00:43:02;1.77;;;1.17;;
19151;SDS011;9708;53.114;9.388;2023-07-20T00:45:30;1.10;;;1.10;;
19151;SDS011;9708;53.114;9.388;2023-07-20T00:47:59;0.93;;;0.93;;
19151;SDS011;9708;53.114;9.388;2023-07-20T00:50:27;3.03;;;1.40;;
19151;SDS011;9708;53.114;9.388;2023-07-20T00:52:55;1.43;;;1.33;;
19151;SDS011;9708;53.114;9.388;2023-07-20T00:55:22;1.80;;;1.40;;
19151;SDS011;9708;53.114;9.388;2023-07-20T00:57:50;1.50;;;1.40;;
19151;SDS011;9708;53.114;9.388;2023-07-20T01:00:17;1.27;;;1.17;;
19151;SDS011;9708;53.114;9.388;2023-07-20T01:02:45;2.30;;;1.20;;
19151;SDS011;9708;53.114;9.388;2023-07-20T01:05:12;0.95;;;0.95;;
19151;SDS011;9708;53.114;9.388;2023-07-20T01:07:42;1.50;;;1.20;;
19151;SDS011;9708;53.114;9.388;2023-07-20T01:10:16;2.25;;;1.25;;
19151;SDS011;9708;53.114;9.388;2023-07-20T01:12:50;1.00;;;1.00;;
19151;SDS011;9708;53.114;9.388;2023-07-20T01:15:19;1.10;;;1.00;;
19151;SDS011;9708;53.114;9.388;2023-07-20T01:17:47;1.60;;;1.40;;
19151;SDS011;9708;53.114;9.388;2023-07-20T01:20:14;1.43;;;1.33;;
19151;SDS011;9708;53.114;9.388;2023-07-20T01:22:50;1.10;;;1.00;;
19151;SDS011;9708;53.114;9.388;2023-07-20T01:25:42;2.07;;;1.60;;
19151;SDS011;9708;53.114;9.388;2023-07-20T01:28:46;4.80;;;1.63;;
19151;SDS011;9708;53.114;9.388;2023-07-20T01:31:23;2.27;;;1.30;;
19151;SDS011;9708;53.114;9.388;2023-07-20T01:33:51;2.03;;;1.23;;
19151;SDS011;9708;53.114;9.388;2023-07-20T01:36:21;3.25;;;2.10;;
19151;SDS011;9708;53.114;9.388;2023-07-20T01:38:49;2.33;;;1.87;;
19151;SDS011;9708;53.114;9.388;2023-07-20T01:41:17;3.87;;;1.60;;
19151;SDS011;9708;53.114;9.388;2023-07-20T01:43:44;2.17;;;1.93;;
19151;SDS011;9708;53.114;9.388;2023-07-20T01:46:12;2.77;;;1.70;;
19151;SDS011;9708;53.114;9.388;2023-07-20T01:48:40;2.13;;;1.80;;
19151;SDS011;9708;53.114;9.388;2023-07-20T01:51:07;3.60;;;2.25;;
19151;SDS011;9708;53.114;9.388;2023-07-20T01:53:34;2.83;;;1.73;;
19151;SDS011;9708;53.114;9.388;2023-07-20T01:56:01;3.10;;;1.83;;
19151;SDS011;9708;53.114;9.388;2023-07-20T01:58:27;2.42;;;1.73;;
19151;SDS011;9708;53.114;9.388;2023-07-20T02:00:54;3.80;;;2.00;;
19151;SDS011;9708;53.114;9.388;2023-07-20T02:03:21;2.70;;;1.63;;
19151;SDS011;9708;53.114;9.388;2023-07-20T02:05:50;1.77;;;1.58;;
19151;SDS011;9708;53.114;9.388;2023-07-20T02:08:17;4.63;;;1.90;;
19151;SDS011;9708;53.114;9.388;2023-07-20T02:10:45;2.00;;;1.80;;
19151;SDS011;9708;53.114;9.388;2023-07-20T02:13:13;3.20;;;1.80;;
19151;SDS011;9708;53.114;9.388;2023-07-20T02:15:40;2.58;;;1.70;;
19151;SDS011;9708;53.114;9.388;2023-07-20T02:18:07;2.77;;;1.87;;
19151;SDS011;9708;53.114;9.388;2023-07-20T02:20:34;2.05;;;1.70;;
19151;SDS011;9708;53.114;9.388;2023-07-20T02:23:02;2.20;;;1.85;;
19151;SDS011;9708;53.114;9.388;2023-07-20T02:25:29;1.73;;;1.53;;
19151;SDS011;9708;53.114;9.388;2023-07-20T02:27:56;1.77;;;1.47;;
19151;SDS011;9708;53.114;9.388;2023-07-20T02:30:23;1.77;;;1.33;;
19151;SDS011;9708;53.114;9.388;2023-07-20T02:32:50;2.90;;;2.00;;
19151;SDS011;9708;53.114;9.388;2023-07-20T02:35:17;1.52;;;1.33;;
19151;SDS011;9708;53.114;9.388;2023-07-20T02:37:43;3.97;;;1.48;;
19151;SDS011;9708;53.114;9.388;2023-07-20T02:40:12;2.60;;;1.48;;
19151;SDS011;9708;53.114;9.388;2023-07-20T02:42:39;2.25;;;1.65;;
19151;SDS011;9708;53.114;9.388;2023-07-20T02:45:06;2.63;;;2.00;;
19151;SDS011;9708;53.114;9.388;2023-07-20T02:47:33;2.13;;;1.70;;
19151;SDS011;9708;53.114;9.388;2023-07-20T02:50:00;2.88;;;2.20;;
19151;SDS011;9708;53.114;9.388;2023-07-20T02:52:27;1.37;;;1.23;;
19151;SDS011;9708;53.114;9.388;2023-07-20T02:54:54;2.42;;;1.92;;
19151;SDS011;9708;53.114;9.388;2023-07-20T02:57:23;2.65;;;1.85;;
19151;SDS011;9708;53.114;9.388;2023-07-20T02:59:49;2.33;;;1.90;;
19151;SDS011;9708;53.114;9.388;2023-07-20T03:02:16;2.80;;;1.65;;
19151;SDS011;9708;53.114;9.388;2023-07-20T03:04:43;2.75;;;1.70;;
19151;SDS011;9708;53.114;9.388;2023-07-20T03:07:10;2.40;;;2.00;;
19151;SDS011;9708;53.114;9.388;2023-07-20T03:09:37;1.63;;;1.50;;
19151;SDS011;9708;53.114;9.388;2023-07-20T03:12:05;1.60;;;1.23;;
19151;SDS011;9708;53.114;9.388;2023-07-20T03:14:34;1.73;;;1.30;;
19151;SDS011;9708;53.114;9.388;2023-07-20T03:17:01;1.80;;;1.67;;
19151;SDS011;9708;53.114;9.388;2023-07-20T03:19:29;1.67;;;1.35;;
19151;SDS011;9708;53.114;9.388;2023-07-20T03:21:56;2.17;;;1.58;;
19151;SDS011;9708;53.114;9.388;2023-07-20T03:24:23;1.83;;;1.10;;
19151;SDS011;9708;53.114;9.388;2023-07-20T03:26:50;1.10;;;1.10;;
19151;SDS011;9708;53.114;9.388;2023-07-20T03:29:18;4.40;;;1.57;;
19151;SDS011;9708;53.114;9.388;2023-07-20T03:31:46;1.38;;;1.27;;
19151;SDS011;9708;53.114;9.388;2023-07-20T03:34:14;1.20;;;1.15;;
19151;SDS011;9708;53.114;9.388;2023-07-20T03:36:41;1.03;;;1.03;;
19151;SDS011;9708;53.114;9.388;2023-07-20T03:39:07;1.00;;;0.90;;
19151;SDS011;9708;53.114;9.388;2023-07-20T03:41:34;1.47;;;1.37;;
19151;SDS011;9708;53.114;9.388;2023-07-20T03:44:02;1.00;;;1.00;;
19151;SDS011;9708;53.114;9.388;2023-07-20T03:46:29;1.65;;;1.23;;
19151;SDS011;9708;53.114;9.388;2023-07-20T03:48:57;1.48;;;1.10;;
19151;SDS011;9708;53.114;9.388;2023-07-20T03:51:24;2.35;;;1.75;;
19151;SDS011;9708;53.114;9.388;2023-07-20T03:53:51;1.33;;;1.15;;
19151;SDS011;9708;53.114;9.388;2023-07-20T03:56:18;1.00;;;0.90;;
19151;SDS011;9708;53.114;9.388;2023-07-20T03:58:44;1.55;;;1.20;;
19151;SDS011;9708;53.114;9.388;2023-07-20T04:01:11;2.33;;;1.20;;
19151;SDS011;9708;53.114;9.388;2023-07-20T04:03:38;1.42;;;1.33;;
19151;SDS011;9708;53.114;9.388;2023-07-20T04:06:07;1.13;;;1.02;;
19151;SDS011;9708;53.114;9.388;2023-07-20T04:08:35;2.17;;;1.10;;
19151;SDS011;9708;53.114;9.388;2023-07-20T04:11:03;2.22;;;1.38;;
19151;SDS011;9708;53.114;9.388;2023-07-20T04:13:29;1.52;;;1.35;;
19151;SDS011;9708;53.114;9.388;2023-07-20T04:15:59;1.85;;;1.75;;
19151;SDS011;9708;53.114;9.388;2023-07-20T04:18:27;1.25;;;1.15;;
19151;SDS011;9708;53.114;9.388;2023-07-20T04:20:57;1.50;;;1.38;;
19151;SDS011;9708;53.114;9.388;2023-07-20T04:23:25;2.10;;;1.40;;
19151;SDS011;9708;53.114;9.388;2023-07-20T04:25:52;1.50;;;1.30;;
19151;SDS011;9708;53.114;9.388;2023-07-20T04:28:19;2.20;;;1.83;;
19151;SDS011;9708;53.114;9.388;2023-07-20T04:30:48;1.30;;;1.20;;
19151;SDS011;9708;53.114;9.388;2023-07-20T04:33:16;1.30;;;1.20;;
19151;SDS011;9708;53.114;9.388;2023-07-20T04:35:50;1.33;;;1.05;;
19151;SDS011;9708;53.114;9.388;2023-07-20T04:38:17;1.27;;;1.13;;
19151;SDS011;9708;53.114;9.388;2023-07-20T04:40:49;2.35;;;1.27;;
19151;SDS011;9708;53.114;9.388;2023-07-20T04:43:17;2.03;;;1.83;;
19151;SDS011;9708;53.114;9.388;2023-07-20T04:45:44;2.08;;;1.52;;
19151;SDS011;9708;53.114;9.388;2023-07-20T04:48:13;1.90;;;1.20;;
19151;SDS011;9708;53.114;9.388;2023-07-20T04:50:42;1.65;;;1.50;;
19151;SDS011;9708;53.114;9.388;2023-07-20T04:53:09;1.33;;;1.23;;
19151;SDS011;9708;53.114;9.388;2023-07-20T04:55:37;1.73;;;1.55;;
19151;SDS011;9708;53.114;9.388;2023-07-20T04:58:06;1.65;;;1.48;;
19151;SDS011;9708;53.114;9.388;2023-07-20T05:00:33;3.50;;;1.88;;
19151;SDS011;9708;53.114;9.388;2023-07-20T05:03:00;1.95;;;1.65;;
19151;SDS011;9708;53.114;9.388;2023-07-20T05:05:27;3.08;;;1.85;;
19151;SDS011;9708;53.114;9.388;2023-07-20T05:07:54;1.50;;;1.40;;
19151;SDS011;9708;53.114;9.388;2023-07-20T05:10:21;1.33;;;1.20;;
19151;SDS011;9708;53.114;9.388;2023-07-20T05:12:48;1.55;;;1.30;;
19151;SDS011;9708;53.114;9.388;2023-07-20T05:15:17;2.05;;;1.45;;
19151;SDS011;9708;53.114;9.388;2023-07-20T05:17:44;2.30;;;1.63;;
19151;SDS011;9708;53.114;9.388;2023-07-20T05:20:10;1.85;;;1.60;;
19151;SDS011;9708;53.114;9.388;2023-07-20T05:22:38;2.45;;;1.77;;
19151;SDS011;9708;53.114;9.388;2023-07-20T05:25:06;1.88;;;1.60;;
19151;SDS011;9708;53.114;9.388;2023-07-20T05:27:35;1.48;;;1.35;;
19151;SDS011;9708;53.114;9.388;2023-07-20T05:30:03;2.70;;;1.95;;
19151;SDS011;9708;53.114;9.388;2023-07-20T05:32:34;9.63;;;3.00;;
19151;SDS011;9708;53.114;9.388;2023-07-20T05:35:01;2.05;;;1.50;;
19151;SDS011;9708;53.114;9.388;2023-07-20T05:37:28;2.83;;;1.90;;
19151;SDS011;9708;53.114;9.388;2023-07-20T05:39:55;13.13;;;4.32;;
19151;SDS011;9708;53.114;9.388;2023-07-20T05:42:22;3.85;;;1.90;;
19151;SDS011;9708;53.114;9.388;2023-07-20T05:44:49;1.90;;;1.48;;
19151;SDS011;9708;53.114;9.388;2023-07-20T05:47:18;3.95;;;1.90;;
19151;SDS011;9708;53.114;9.388;2023-07-20T05:49:46;1.88;;;1.70;;
19151;SDS011;9708;53.114;9.388;2023-07-20T05:52:13;1.75;;;1.50;;
19151;SDS011;9708;53.114;9.388;2023-07-20T05:54:39;5.43;;;1.98;;
19151;SDS011;9708;53.114;9.388;2023-07-20T05:57:07;1.60;;;1.50;;
19151;SDS011;9708;53.114;9.388;2023-07-20T05:59:34;2.40;;;2.17;;
19151;SDS011;9708;53.114;9.388;2023-07-20T06:02:01;4.57;;;1.92;;
19151;SDS011;9708;53.114;9.388;2023-07-20T06:04:28;2.22;;;1.95;;
19151;SDS011;9708;53.114;9.388;2023-07-20T06:06:56;3.15;;;1.45;;
19151;SDS011;9708;53.114;9.388;2023-07-20T06:09:23;2.00;;;1.20;;
19151;SDS011;9708;53.114;9.388;2023-07-20T06:11:50;1.00;;;1.00;;
19151;SDS011;9708;53.114;9.388;2023-07-20T06:14:17;1.17;;;1.08;;
19151;SDS011;9708;53.114;9.388;2023-07-20T06:16:43;1.58;;;1.10;;
19151;SDS011;9708;53.114;9.388;2023-07-20T06:19:10;2.22;;;1.00;;
19151;SDS011;9708;53.114;9.388;2023-07-20T06:21:37;1.95;;;0.80;;
19151;SDS011;9708;53.114;9.388;2023-07-20T06:24:05;3.35;;;1.15;;
19151;SDS011;9708;53.114;9.388;2023-07-20T06:26:32;1.05;;;1.00;;
19151;SDS011;9708;53.114;9.388;2023-07-20T06:29:04;0.60;;;0.60;;
19151;SDS011;9708;53.114;9.388;2023-07-20T06:31:31;2.42;;;1.25;;
19151;SDS011;9708;53.114;9.388;2023-07-20T06:33:58;0.82;;;0.70;;
19151;SDS011;9708;53.114;9.388;2023-07-20T06:36:26;5.70;;;2.58;;
19151;SDS011;9708;53.114;9.388;2023-07-20T06:38:53;3.25;;;1.45;;
19151;SDS011;9708;53.114;9.388;2023-07-20T06:41:21;3.03;;;1.20;;
19151;SDS011;9708;53.114;9.388;2023-07-20T06:43:49;1.38;;;0.75;;
19151;SDS011;9708;53.114;9.388;2023-07-20T06:46:17;0.70;;;0.70;;
19151;SDS011;9708;53.114;9.388;2023-07-20T06:48:44;1.38;;;0.80;;
19151;SDS011;9708;53.114;9.388;2023-07-20T06:51:11;0.80;;;0.80;;
19151;SDS011;9708;53.114;9.388;2023-07-20T06:53:38;0.90;;;0.90;;
19151;SDS011;9708;53.114;9.388;2023-07-20T06:56:04;2.92;;;1.27;;
19151;SDS011;9708;53.114;9.388;2023-07-20T06:58:32;2.22;;;0.88;;
19151;SDS011;9708;53.114;9.388;2023-07-20T07:01:04;1.83;;;1.02;;
19151;SDS011;9708;53.114;9.388;2023-07-20T07:03:31;1.73;;;0.90;;
19151;SDS011;9708;53.114;9.388;2023-07-20T07:05:57;1.02;;;0.70;;
19151;SDS011;9708;53.114;9.388;2023-07-20T07:08:24;2.10;;;0.80;;
19151;SDS011;9708;53.114;9.388;2023-07-20T07:10:51;0.70;;;0.70;;
19151;SDS011;9708;53.114;9.388;2023-07-20T07:13:18;2.67;;;0.70;;
19151;SDS011;9708;53.114;9.388;2023-07-20T07:15:47;1.13;;;0.65;;
19151;SDS011;9708;53.114;9.388;2023-07-20T07:18:14;0.60;;;0.60;;
19151;SDS011;9708;53.114;9.388;2023-07-20T07:20:40;1.45;;;0.63;;
19151;SDS011;9708;53.114;9.388;2023-07-20T07:23:07;0.85;;;0.50;;
19151;SDS011;9708;53.114;9.388;2023-07-20T07:25:34;1.40;;;0.70;;
19151;SDS011;9708;53.114;9.388;2023-07-20T07:28:01;0.82;;;0.80;;
19151;SDS011;9708;53.114;9.388;2023-07-20T07:30:28;0.60;;;0.60;;
19151;SDS011;9708;53.114;9.388;2023-07-20T07:32:56;0.60;;;0.60;;
19151;SDS011;9708;53.114;9.388;2023-07-20T07:35:23;0.70;;;0.70;;
19151;SDS011;9708;53.114;9.388;2023-07-20T07:37:50;2.58;;;0.80;;
19151;SDS011;9708;53.114;9.388;2023-07-20T07:40:16;2.35;;;0.75;;
19151;SDS011;9708;53.114;9.388;2023-07-20T07:42:43;0.90;;;0.60;;
19151;SDS011;9708;53.114;9.388;2023-07-20T07:45:10;0.95;;;0.60;;
19151;SDS011;9708;53.114;9.388;2023-07-20T07:47:38;0.80;;;0.80;;
19151;SDS011;9708;53.114;9.388;2023-07-20T07:50:07;0.50;;;0.50;;
19151;SDS011;9708;53.114;9.388;2023-07-20T07:52:35;1.25;;;0.70;;
19151;SDS011;9708;53.114;9.388;2023-07-20T07:55:02;0.50;;;0.50;;
19151;SDS011;9708;53.114;9.388;2023-07-20T07:57:29;4.55;;;1.48;;
19151;SDS011;9708;53.114;9.388;2023-07-20T07:59:57;1.30;;;0.70;;
19151;SDS011;9708;53.114;9.388;2023-07-20T08:02:23;0.93;;;0.50;;
19151;SDS011;9708;53.114;9.388;2023-07-20T08:04:50;0.95;;;0.70;;
19151;SDS011;9708;53.114;9.388;2023-07-20T08:07:19;1.10;;;0.70;;
19151;SDS011;9708;53.114;9.388;2023-07-20T08:09:45;0.70;;;0.70;;
19151;SDS011;9708;53.114;9.388;2023-07-20T08:12:12;1.13;;;0.70;;
19151;SDS011;9708;53.114;9.388;2023-07-20T08:14:42;0.82;;;0.73;;
19151;SDS011;9708;53.114;9.388;2023-07-20T08:17:09;0.55;;;0.55;;
19151;SDS011;9708;53.114;9.388;2023-07-20T08:19:36;0.98;;;0.63;;
19151;SDS011;9708;53.114;9.388;2023-07-20T08:22:07;3.92;;;0.88;;
19151;SDS011;9708;53.114;9.388;2023-07-20T08:24:35;0.82;;;0.50;;
19151;SDS011;9708;53.114;9.388;2023-07-20T08:27:05;0.60;;;0.60;;
19151;SDS011;9708;53.114;9.388;2023-07-20T08:29:33;0.82;;;0.70;;
19151;SDS011;9708;53.114;9.388;2023-07-20T08:32:00;1.65;;;0.60;;
19151;SDS011;9708;53.114;9.388;2023-07-20T08:34:27;1.63;;;0.75;;
19151;SDS011;9708;53.114;9.388;2023-07-20T08:36:54;2.05;;;1.30;;
19151;SDS011;9708;53.114;9.388;2023-07-20T08:39:21;0.50;;;0.50;;
19151;SDS011;9708;53.114;9.388;2023-07-20T08:41:49;0.85;;;0.63;;
19151;SDS011;9708;53.114;9.388;2023-07-20T08:44:17;5.55;;;1.38;;
19151;SDS011;9708;53.114;9.388;2023-07-20T08:46:44;2.28;;;1.25;;
19151;SDS011;9708;53.114;9.388;2023-07-20T08:49:13;3.22;;;1.23;;
19151;SDS011;9708;53.114;9.388;2023-07-20T08:51:42;1.92;;;0.80;;
19151;SDS011;9708;53.114;9.388;2023-07-20T08:54:10;1.88;;;1.00;;
19151;SDS011;9708;53.114;9.388;2023-07-20T08:56:38;1.45;;;1.00;;
19151;SDS011;9708;53.114;9.388;2023-07-20T08:59:08;1.23;;;0.90;;
19151;SDS011;9708;53.114;9.388;2023-07-20T09:01:36;1.23;;;0.85;;
19151;SDS011;9708;53.114;9.388;2023-07-20T09:04:05;1.58;;;1.00;;
19151;SDS011;9708;53.114;9.388;2023-07-20T09:06:32;0.93;;;0.75;;
19151;SDS011;9708;53.114;9.388;2023-07-20T09:09:00;1.42;;;0.85;;
19151;SDS011;9708;53.114;9.388;2023-07-20T09:11:26;1.08;;;1.00;;
19151;SDS011;9708;53.114;9.388;2023-07-20T09:14:02;1.10;;;0.85;;
19151;SDS011;9708;53.114;9.388;2023-07-20T09:16:31;0.80;;;0.80;;
19151;SDS011;9708;53.114;9.388;2023-07-20T09:18:58;5.20;;;1.17;;
19151;SDS011;9708;53.114;9.388;2023-07-20T09:21:28;0.77;;;0.77;;
19151;SDS011;9708;53.114;9.388;2023-07-20T09:23:56;0.60;;;0.60;;
19151;SDS011;9708;53.114;9.388;2023-07-20T09:26:23;2.28;;;1.20;;
19151;SDS011;9708;53.114;9.388;2023-07-20T09:28:51;1.00;;;0.90;;
19151;SDS011;9708;53.114;9.388;2023-07-20T09:31:20;1.85;;;1.25;;
19151;SDS011;9708;53.114;9.388;2023-07-20T09:33:49;2.78;;;0.70;;
19151;SDS011;9708;53.114;9.388;2023-07-20T09:36:18;1.88;;;0.80;;
19151;SDS011;9708;53.114;9.388;2023-07-20T09:38:45;1.63;;;1.27;;
19151;SDS011;9708;53.114;9.388;2023-07-20T09:41:13;0.80;;;0.80;;
19151;SDS011;9708;53.114;9.388;2023-07-20T09:43:40;2.97;;;1.55;;
19151;SDS011;9708;53.114;9.388;2023-07-20T09:46:08;4.10;;;1.00;;
19151;SDS011;9708;53.114;9.388;2023-07-20T09:48:35;1.00;;;0.75;;
19151;SDS011;9708;53.114;9.388;2023-07-20T09:51:03;1.88;;;0.90;;
19151;SDS011;9708;53.114;9.388;2023-07-20T09:53:31;4.80;;;1.13;;
19151;SDS011;9708;53.114;9.388;2023-07-20T09:55:59;1.55;;;0.80;;
19151;SDS011;9708;53.114;9.388;2023-07-20T09:58:27;1.73;;;0.90;;
19151;SDS011;9708;53.114;9.388;2023-07-20T10:00:57;3.38;;;1.10;;
19151;SDS011;9708;53.114;9.388;2023-07-20T10:03:30;3.00;;;1.50;;
19151;SDS011;9708;53.114;9.388;2023-07-20T10:05:58;4.65;;;1.20;;
19151;SDS011;9708;53.114;9.388;2023-07-20T10:08:30;1.08;;;0.80;;
19151;SDS011;9708;53.114;9.388;2023-07-20T10:11:02;1.98;;;1.08;;
19151;SDS011;9708;53.114;9.388;2023-07-20T10:13:29;2.05;;;1.00;;
19151;SDS011;9708;53.114;9.388;2023-07-20T10:15:58;1.65;;;0.95;;
19151;SDS011;9708;53.114;9.388;2023-07-20T10:18:29;1.52;;;0.95;;
19151;SDS011;9708;53.114;9.388;2023-07-20T10:20:59;1.13;;;0.63;;
19151;SDS011;9708;53.114;9.388;2023-07-20T10:23:28;1.75;;;1.00;;
19151;SDS011;9708;53.114;9.388;2023-07-20T10:25:57;4.20;;;1.27;;
19151;SDS011;9708;53.114;9.388;2023-07-20T10:28:24;2.00;;;1.20;;
19151;SDS011;9708;53.114;9.388;2023-07-20T10:30:54;1.77;;;1.20;;
19151;SDS011;9708;53.114;9.388;2023-07-20T10:33:21;2.40;;;1.17;;
19151;SDS011;9708;53.114;9.388;2023-07-20T10:35:51;1.67;;;1.20;;
19151;SDS011;9708;53.114;9.388;2023-07-20T10:38:18;1.98;;;1.10;;
19151;SDS011;9708;53.114;9.388;2023-07-20T10:40:53;1.77;;;1.23;;
19151;SDS011;9708;53.114;9.388;2023-07-20T10:43:22;3.35;;;1.08;;
19151;SDS011;9708;53.114;9.388;2023-07-20T10:45:51;1.52;;;1.05;;
19151;SDS011;9708;53.114;9.388;2023-07-20T10:48:18;1.13;;;0.80;;
19151;SDS011;9708;53.114;9.388;2023-07-20T10:51:08;0.88;;;0.77;;
19151;SDS011;9708;53.114;9.388;2023-07-20T10:53:37;2.95;;;0.98;;
19151;SDS011;9708;53.114;9.388;2023-07-20T10:56:08;1.05;;;0.70;;
19151;SDS011;9708;53.114;9.388;2023-07-20T10:58:39;1.30;;;1.10;;
19151;SDS011;9708;53.114;9.388;2023-07-20T11:01:06;1.10;;;0.90;;
19151;SDS011;9708;53.114;9.388;2023-07-20T11:03:34;1.27;;;0.70;;
19151;SDS011;9708;53.114;9.388;2023-07-20T11:09:03;1.48;;;0.77;;
19151;SDS011;9708;53.114;9.388;2023-07-20T11:11:33;0.60;;;0.60;;
19151;SDS011;9708;53.114;9.388;2023-07-20T11:14:02;0.85;;;0.80;;
19151;SDS011;9708;53.114;9.388;2023-07-20T11:16:34;1.65;;;0.80;;
19151;SDS011;9708;53.114;9.388;2023-07-20T11:19:05;3.78;;;1.05;;
19151;SDS011;9708;53.114;9.388;2023-07-20T11:21:41;1.33;;;0.80;;
19151;SDS011;9708;53.114;9.388;2023-07-20T11:24:08;1.52;;;0.70;;
19151;SDS011;9708;53.114;9.388;2023-07-20T11:26:45;2.97;;;1.05;;
19151;SDS011;9708;53.114;9.388;2023-07-20T11:29:15;1.45;;;1.05;;
19151;SDS011;9708;53.114;9.388;2023-07-20T11:31:43;2.88;;;1.20;;
19151;SDS011;9708;53.114;9.388;2023-07-20T11:34:11;3.35;;;1.90;;
19151;SDS011;9708;53.114;9.388;2023-07-20T11:36:39;1.35;;;0.80;;
19151;SDS011;9708;53.114;9.388;2023-07-20T11:39:07;0.75;;;0.75;;
19151;SDS011;9708;53.114;9.388;2023-07-20T11:41:34;0.93;;;0.80;;
19151;SDS011;9708;53.114;9.388;2023-07-20T11:44:01;2.85;;;0.70;;
19151;SDS011;9708;53.114;9.388;2023-07-20T11:46:30;0.90;;;0.65;;
19151;SDS011;9708;53.114;9.388;2023-07-20T11:48:57;0.50;;;0.50;;
19151;SDS011;9708;53.114;9.388;2023-07-20T11:51:26;1.00;;;0.80;;
19151;SDS011;9708;53.114;9.388;2023-07-20T11:53:54;0.98;;;0.70;;
19151;SDS011;9708;53.114;9.388;2023-07-20T11:56:22;3.22;;;0.82;;
19151;SDS011;9708;53.114;9.388;2023-07-20T11:58:50;0.90;;;0.63;;
19151;SDS011;9708;53.114;9.388;2023-07-20T12:01:20;0.82;;;0.73;;
19151;SDS011;9708;53.114;9.388;2023-07-20T12:03:49;0.60;;;0.60;;
19151;SDS011;9708;53.114;9.388;2023-07-20T12:06:15;3.70;;;0.77;;
19151;SDS011;9708;53.114;9.388;2023-07-20T12:08:43;1.17;;;0.73;;
19151;SDS011;9708;53.114;9.388;2023-07-20T12:11:10;0.65;;;0.50;;
19151;SDS011;9708;53.114;9.388;2023-07-20T12:13:38;2.03;;;0.88;;
19151;SDS011;9708;53.114;9.388;2023-07-20T12:16:09;0.70;;;0.70;;
19151;SDS011;9708;53.114;9.388;2023-07-20T12:18:37;0.63;;;0.63;;
19151;SDS011;9708;53.114;9.388;2023-07-20T12:21:06;2.13;;;0.93;;
19151;SDS011;9708;53.114;9.388;2023-07-20T12:23:34;0.73;;;0.68;;
19151;SDS011;9708;53.114;9.388;2023-07-20T12:26:03;0.57;;;0.57;;
19151;SDS011;9708;53.114;9.388;2023-07-20T12:28:33;0.70;;;0.70;;
19151;SDS011;9708;53.114;9.388;2023-07-20T12:31:01;1.00;;;0.73;;
19151;SDS011;9708;53.114;9.388;2023-07-20T12:33:28;1.25;;;0.70;;
19151;SDS011;9708;53.114;9.388;2023-07-20T12:35:55;0.70;;;0.70;;
19151;SDS011;9708;53.114;9.388;2023-07-20T12:38:25;2.25;;;0.73;;
19151;SDS011;9708;53.114;9.388;2023-07-20T12:40:53;9.20;;;1.33;;
19151;SDS011;9708;53.114;9.388;2023-07-20T12:43:21;1.60;;;0.70;;
19151;SDS011;9708;53.114;9.388;2023-07-20T12:45:48;2.47;;;1.02;;
19151;SDS011;9708;53.114;9.388;2023-07-20T12:48:14;1.33;;;0.82;;
19151;SDS011;9708;53.114;9.388;2023-07-20T12:50:41;2.72;;;1.10;;
19151;SDS011;9708;53.114;9.388;2023-07-20T12:53:08;6.60;;;1.42;;
19151;SDS011;9708;53.114;9.388;2023-07-20T12:55:37;1.30;;;0.90;;
19151;SDS011;9708;53.114;9.388;2023-07-20T12:58:03;0.63;;;0.60;;
19151;SDS011;9708;53.114;9.388;2023-07-20T13:00:30;1.35;;;0.73;;
19151;SDS011;9708;53.114;9.388;2023-07-20T13:02:57;1.23;;;1.13;;
19151;SDS011;9708;53.114;9.388;2023-07-20T13:05:24;4.10;;;1.40;;
19151;SDS011;9708;53.114;9.388;2023-07-20T13:07:51;2.53;;;0.88;;
19151;SDS011;9708;53.114;9.388;2023-07-20T13:10:18;1.60;;;1.02;;
19151;SDS011;9708;53.114;9.388;2023-07-20T13:12:47;1.55;;;1.10;;
19151;SDS011;9708;53.114;9.388;2023-07-20T13:15:13;0.80;;;0.80;;
19151;SDS011;9708;53.114;9.388;2023-07-20T13:17:40;3.42;;;0.95;;
19151;SDS011;9708;53.114;9.388;2023-07-20T13:20:07;3.30;;;1.00;;
19151;SDS011;9708;53.114;9.388;2023-07-20T13:22:36;10.23;;;1.50;;
19151;SDS011;9708;53.114;9.388;2023-07-20T13:25:03;9.13;;;2.28;;
19151;SDS011;9708;53.114;9.388;2023-07-20T13:27:31;9.70;;;2.38;;
19151;SDS011;9708;53.114;9.388;2023-07-20T13:29:59;2.58;;;1.65;;
19151;SDS011;9708;53.114;9.388;2023-07-20T13:32:31;1.10;;;1.00;;
19151;SDS011;9708;53.114;9.388;2023-07-20T13:34:58;2.67;;;1.00;;
19151;SDS011;9708;53.114;9.388;2023-07-20T13:37:25;1.65;;;1.05;;
19151;SDS011;9708;53.114;9.388;2023-07-20T13:39:55;1.65;;;0.88;;
19151;SDS011;9708;53.114;9.388;2023-07-20T13:42:22;1.50;;;0.77;;
19151;SDS011;9708;53.114;9.388;2023-07-20T13:44:48;9.27;;;1.55;;
19151;SDS011;9708;53.114;9.388;2023-07-20T13:47:17;0.77;;;0.73;;
19151;SDS011;9708;53.114;9.388;2023-07-20T13:49:44;0.70;;;0.70;;
19151;SDS011;9708;53.114;9.388;2023-07-20T13:52:10;0.70;;;0.70;;
19151;SDS011;9708;53.114;9.388;2023-07-20T13:54:37;2.63;;;0.88;;
19151;SDS011;9708;53.114;9.388;2023-07-20T13:57:04;1.40;;;0.80;;
19151;SDS011;9708;53.114;9.388;2023-07-20T13:59:32;0.80;;;0.80;;
19151;SDS011;9708;53.114;9.388;2023-07-20T14:01:58;0.90;;;0.90;;
19151;SDS011;9708;53.114;9.388;2023-07-20T14:04:26;0.60;;;0.60;;
19151;SDS011;9708;53.114;9.388;2023-07-20T14:06:54;1.45;;;0.93;;
19151;SDS011;9708;53.114;9.388;2023-07-20T14:09:20;5.43;;;0.80;;
19151;SDS011;9708;53.114;9.388;2023-07-20T14:11:47;0.63;;;0.57;;
19151;SDS011;9708;53.114;9.388;2023-07-20T14:14:14;2.47;;;0.98;;
19151;SDS011;9708;53.114;9.388;2023-07-20T14:16:41;2.15;;;0.90;;
19151;SDS011;9708;53.114;9.388;2023-07-20T14:19:08;1.70;;;0.65;;
19151;SDS011;9708;53.114;9.388;2023-07-20T14:21:36;0.63;;;0.63;;
19151;SDS011;9708;53.114;9.388;2023-07-20T14:24:03;2.80;;;0.95;;
19151;SDS011;9708;53.114;9.388;2023-07-20T14:26:31;0.93;;;0.60;;
19151;SDS011;9708;53.114;9.388;2023-07-20T14:28:57;0.63;;;0.63;;
19151;SDS011;9708;53.114;9.388;2023-07-20T14:31:24;2.38;;;0.77;;
19151;SDS011;9708;53.114;9.388;2023-07-20T14:33:51;0.80;;;0.80;;
19151;SDS011;9708;53.114;9.388;2023-07-20T14:36:18;0.85;;;0.55;;
19151;SDS011;9708;53.114;9.388;2023-07-20T14:38:47;0.50;;;0.50;;
19151;SDS011;9708;53.114;9.388;2023-07-20T14:41:13;0.63;;;0.50;;
19151;SDS011;9708;53.114;9.388;2023-07-20T14:43:40;0.68;;;0.60;;
19151;SDS011;9708;53.114;9.388;2023-07-20T14:46:07;0.60;;;0.60;;
19151;SDS011;9708;53.114;9.388;2023-07-20T14:48:34;1.75;;;0.95;;
19151;SDS011;9708;53.114;9.388;2023-07-20T14:51:00;12.15;;;3.40;;
19151;SDS011;9708;53.114;9.388;2023-07-20T14:53:27;2.55;;;0.80;;
19151;SDS011;9708;53.114;9.388;2023-07-20T14:55:59;0.63;;;0.63;;
19151;SDS011;9708;53.114;9.388;2023-07-20T14:58:26;1.35;;;0.50;;
19151;SDS011;9708;53.114;9.388;2023-07-20T15:00:53;0.90;;;0.57;;
19151;SDS011;9708;53.114;9.388;2023-07-20T15:03:20;0.40;;;0.40;;
19151;SDS011;9708;53.114;9.388;2023-07-20T15:05:47;1.85;;;0.63;;
19151;SDS011;9708;53.114;9.388;2023-07-20T15:08:13;0.85;;;0.60;;